Time;durP1;ratioP1;P1;durP2;ratioP2;P2;SDS_P1;SDS_P2;PMS_P1;PMS_P2;Temp;Humidity;BMP_temperature;BMP_pressure;BME280_temperature;BME280_humidity;BME280_pressure;Samples;Min_cycle;Max_cycle;Signal;HPM_P1;HPM_P2
2024/01/14 00:00:01;;;;;;;18.10;3.42;;;5.10;99.90;;;;;;5042330;28;20042;-72
2024/01/14 00:02:27;;;;;;;20.25;3.75;;;5.20;99.90;;;;;;5032162;28;20033;-72
2024/01/14 00:04:53;;;;;;;23.30;3.30;;;5.10;99.90;;;;;;5039094;28;20436;-72
2024/01/14 00:07:19;;;;;;;27.67;3.50;;;5.10;99.90;;;;;;5075978;28;20128;-73
2024/01/14 00:09:44;;;;;;;19.25;3.83;;;5.10;99.90;;;;;;5052586;28;20262;-73
2024/01/14 00:12:10;;;;;;;17.67;2.78;;;5.10;99.90;;;;;;5051216;28;20040;-72
2024/01/14 00:14:36;;;;;;;14.60;2.80;;;5.00;99.90;;;;;;5039178;28;20119;-72
2024/01/14 00:17:01;;;;;;;17.10;3.67;;;5.00;99.90;;;;;;5042638;28;20041;-72
2024/01/14 00:19:27;;;;;;;14.40;2.60;;;4.90;99.90;;;;;;5037886;28;20064;-82
2024/01/14 00:21:53;;;;;;;13.88;2.40;;;4.90;99.90;;;;;;5042892;28;20037;-72
2024/01/14 00:24:18;;;;;;;16.83;2.92;;;4.90;99.90;;;;;;5035395;28;20041;-72
2024/01/14 00:26:44;;;;;;;7.47;1.75;;;4.90;99.90;;;;;;5043519;28;20045;-72
2024/01/14 00:29:10;;;;;;;8.40;2.03;;;4.90;99.90;;;;;;5031994;28;20041;-72
2024/01/14 00:31:35;;;;;;;8.18;2.28;;;4.80;99.90;;;;;;5031840;28;20463;-73
2024/01/14 00:34:01;;;;;;;13.35;2.08;;;4.90;99.90;;;;;;5032220;28;20044;-73
2024/01/14 00:36:27;;;;;;;13.40;2.47;;;4.90;99.90;;;;;;5045134;28;20086;-72
2024/01/14 00:38:52;;;;;;;9.45;2.13;;;4.90;99.90;;;;;;5041115;28;20124;-72
2024/01/14 00:41:20;;;;;;;11.35;2.47;;;4.90;99.90;;;;;;5037143;28;20033;-72
2024/01/14 00:43:45;;;;;;;9.50;2.10;;;5.00;99.90;;;;;;5074626;28;20050;-72
2024/01/14 00:46:12;;;;;;;13.57;2.47;;;4.90;99.90;;;;;;5038969;28;20040;-72
2024/01/14 00:48:38;;;;;;;12.88;2.50;;;5.00;99.90;;;;;;5031079;28;20470;-72
2024/01/14 00:51:04;;;;;;;17.60;2.60;;;4.90;99.90;;;;;;5030397;28;20041;-71
2024/01/14 00:53:30;;;;;;;13.93;2.63;;;4.80;99.90;;;;;;5036931;28;20038;-71
2024/01/14 00:55:55;;;;;;;15.05;1.90;;;4.90;99.90;;;;;;5041605;28;20433;-71
2024/01/14 00:58:21;;;;;;;16.27;2.17;;;4.90;99.90;;;;;;5048433;28;20485;-71
2024/01/14 01:00:47;;;;;;;20.15;3.55;;;4.90;99.90;;;;;;5050850;28;20040;-71
2024/01/14 01:03:13;;;;;;;18.88;2.63;;;4.90;99.90;;;;;;5047884;28;20041;-71
2024/01/14 01:05:38;;;;;;;21.85;2.88;;;4.80;99.90;;;;;;5032428;28;20164;-71
2024/01/14 01:08:04;;;;;;;13.15;2.40;;;4.80;99.90;;;;;;5049842;28;20045;-71
2024/01/14 01:10:30;;;;;;;15.43;2.10;;;4.80;99.90;;;;;;5044524;28;20037;-72
2024/01/14 01:12:56;;;;;;;14.15;2.13;;;4.80;99.90;;;;;;5049232;28;20044;-71
2024/01/14 01:15:22;;;;;;;15.23;2.28;;;4.80;99.90;;;;;;5051365;28;20059;-71
2024/01/14 01:17:48;;;;;;;20.00;2.63;;;4.70;99.90;;;;;;5048457;28;20463;-71
2024/01/14 01:20:13;;;;;;;13.77;2.60;;;4.70;99.90;;;;;;5049702;28;20044;-71
2024/01/14 01:22:39;;;;;;;14.73;2.10;;;4.70;99.90;;;;;;5064010;28;20037;-71
2024/01/14 01:25:05;;;;;;;10.68;2.00;;;4.60;99.90;;;;;;5033981;28;20053;-71
2024/01/14 01:27:31;;;;;;;14.18;2.22;;;4.60;99.90;;;;;;5039184;28;20343;-71
2024/01/14 01:29:57;;;;;;;14.82;2.50;;;4.60;99.90;;;;;;5047837;28;20051;-71
2024/01/14 01:32:23;;;;;;;13.23;2.42;;;4.70;99.90;;;;;;5076599;28;20043;-71
2024/01/14 01:34:48;;;;;;;10.80;2.42;;;4.80;99.90;;;;;;5050944;28;20037;-71
2024/01/14 01:37:14;;;;;;;10.15;2.20;;;4.60;99.90;;;;;;5050110;28;20458;-71
2024/01/14 01:39:40;;;;;;;18.50;2.30;;;4.70;99.90;;;;;;5076572;28;20124;-79
2024/01/14 01:42:06;;;;;;;13.57;3.08;;;4.60;99.90;;;;;;5048207;28;20124;-71
2024/01/14 01:44:33;;;;;;;12.35;2.40;;;4.60;99.90;;;;;;5039845;28;20072;-71
2024/01/14 01:47:00;;;;;;;16.10;2.90;;;4.60;99.90;;;;;;5054639;28;20053;-71
2024/01/14 01:49:27;;;;;;;15.85;3.08;;;4.60;99.90;;;;;;5053285;28;20055;-71
2024/01/14 01:51:54;;;;;;;13.10;2.53;;;4.50;99.90;;;;;;5054520;28;20102;-71
2024/01/14 01:54:25;;;;;;;11.15;2.72;;;4.80;99.90;;;;;;5054865;28;20068;-71
2024/01/14 01:56:52;;;;;;;16.45;2.42;;;4.40;99.90;;;;;;5047066;28;20103;-71
2024/01/14 01:59:19;;;;;;;14.45;2.92;;;4.40;99.90;;;;;;5045894;28;20044;-71
2024/01/14 02:01:46;;;;;;;16.23;2.53;;;4.50;99.90;;;;;;5049205;28;20038;-71
2024/01/14 02:04:14;;;;;;;11.93;2.85;;;4.50;99.90;;;;;;5044717;28;20047;-71
2024/01/14 02:06:40;;;;;;;13.85;2.40;;;4.40;99.90;;;;;;5054606;28;20064;-72
2024/01/14 02:09:10;;;;;;;17.27;2.42;;;4.50;99.90;;;;;;5052405;28;20114;-72
2024/01/14 02:11:37;;;;;;;15.95;2.78;;;4.30;99.90;;;;;;5053901;28;20390;-71
2024/01/14 02:14:03;;;;;;;11.52;2.83;;;4.30;99.90;;;;;;5086407;28;20045;-71
2024/01/14 02:16:29;;;;;;;14.07;2.38;;;4.30;99.90;;;;;;5036591;28;20048;-75
2024/01/14 02:18:54;;;;;;;8.57;2.38;;;4.20;99.90;;;;;;5039204;28;20123;-71
2024/01/14 02:21:23;;;;;;;10.73;2.10;;;4.20;99.90;;;;;;5051703;28;20040;-71
2024/01/14 02:23:56;;;;;;;21.02;3.42;;;4.30;99.90;;;;;;5053445;28;20044;-71
2024/01/14 02:26:22;;;;;;;15.23;3.17;;;4.10;99.90;;;;;;5052440;28;20124;-71
2024/01/14 02:28:48;;;;;;;15.07;2.65;;;4.10;99.90;;;;;;5053161;28;20124;-80
2024/01/14 02:31:15;;;;;;;15.20;2.92;;;4.10;99.90;;;;;;5052524;28;20526;-73
2024/01/14 02:33:41;;;;;;;15.90;3.30;;;4.20;99.90;;;;;;5051994;28;20497;-72
2024/01/14 02:36:06;;;;;;;12.25;2.47;;;4.80;99.90;;;;;;5053496;28;20037;-72
2024/01/14 02:38:32;;;;;;;14.55;3.30;;;4.20;99.90;;;;;;5051839;28;20056;-72
2024/01/14 02:40:58;;;;;;;18.92;3.53;;;4.20;99.90;;;;;;5035411;28;20124;-73
2024/01/14 02:43:23;;;;;;;16.27;3.28;;;4.10;99.90;;;;;;5052268;28;20032;-72
2024/01/14 02:45:49;;;;;;;14.07;3.00;;;4.10;99.90;;;;;;5052640;28;20152;-81
2024/01/14 02:48:15;;;;;;;15.57;2.83;;;4.10;99.90;;;;;;5053640;28;20041;-72
2024/01/14 02:50:40;;;;;;;16.65;3.25;;;4.10;99.90;;;;;;5039857;28;20119;-72
2024/01/14 02:53:07;;;;;;;16.70;2.90;;;4.10;99.90;;;;;;5050142;28;20356;-72
2024/01/14 02:55:33;;;;;;;23.33;3.08;;;4.10;99.90;;;;;;5085715;28;20049;-72
2024/01/14 02:57:59;;;;;;;13.30;3.35;;;4.10;99.90;;;;;;5050301;28;20045;-71
2024/01/14 03:00:24;;;;;;;12.65;2.83;;;4.10;99.90;;;;;;5052692;28;20053;-71
2024/01/14 03:02:50;;;;;;;17.50;3.33;;;4.10;99.90;;;;;;5052112;28;20112;-72
2024/01/14 03:05:16;;;;;;;15.02;2.63;;;4.10;99.90;;;;;;5051885;28;20045;-72
2024/01/14 03:07:41;;;;;;;16.55;3.50;;;4.00;99.90;;;;;;5049456;28;20095;-71
2024/01/14 03:10:07;;;;;;;16.13;3.20;;;4.10;99.90;;;;;;5051766;28;20111;-72
2024/01/14 03:12:33;;;;;;;14.55;3.65;;;4.00;99.90;;;;;;5040217;28;20080;-71
2024/01/14 03:14:58;;;;;;;16.20;3.00;;;4.00;99.90;;;;;;5083742;28;20045;-71
2024/01/14 03:17:24;;;;;;;17.25;3.33;;;3.90;99.90;;;;;;5068958;28;20056;-71
2024/01/14 03:19:49;;;;;;;13.73;2.95;;;3.90;99.90;;;;;;5051556;28;20143;-71
2024/01/14 03:22:15;;;;;;;17.38;3.60;;;4.00;99.90;;;;;;5052524;28;20048;-72
2024/01/14 03:24:41;;;;;;;18.33;3.45;;;3.90;99.90;;;;;;5051276;28;20041;-71
2024/01/14 03:27:07;;;;;;;23.55;3.90;;;3.90;99.90;;;;;;5039877;28;20187;-71
2024/01/14 03:29:32;;;;;;;17.67;4.13;;;4.00;99.90;;;;;;5051931;28;20044;-71
2024/01/14 03:31:58;;;;;;;19.02;3.28;;;4.00;99.90;;;;;;5019386;28;20463;-78
2024/01/14 03:34:23;;;;;;;16.27;3.53;;;3.90;99.90;;;;;;5051538;28;20033;-71
2024/01/14 03:36:49;;;;;;;14.70;3.42;;;3.90;99.90;;;;;;5052488;28;20470;-71
2024/01/14 03:39:15;;;;;;;16.33;3.13;;;3.90;99.90;;;;;;5051302;28;20489;-71
2024/01/14 03:41:41;;;;;;;17.73;3.58;;;4.00;99.90;;;;;;5067402;28;20409;-71
2024/01/14 03:44:06;;;;;;;20.85;3.30;;;3.90;99.90;;;;;;5050619;28;20397;-71
2024/01/14 03:46:32;;;;;;;15.65;3.08;;;3.90;99.90;;;;;;5051954;28;20090;-70
2024/01/14 03:48:58;;;;;;;17.02;3.40;;;3.90;99.90;;;;;;5052740;28;20110;-71
2024/01/14 03:51:23;;;;;;;17.38;3.42;;;4.00;99.90;;;;;;5036429;28;20064;-71
2024/01/14 03:53:49;;;;;;;20.85;3.60;;;4.20;99.90;;;;;;5045944;28;20071;-70
2024/01/14 03:56:15;;;;;;;18.55;3.75;;;4.10;99.90;;;;;;5038329;28;20397;-71
2024/01/14 03:58:40;;;;;;;19.95;3.10;;;4.10;99.90;;;;;;5032221;28;20100;-71
2024/01/14 04:01:15;;;;;;;14.25;3.10;;;4.00;99.90;;;;;;5031733;28;20048;-71
2024/01/14 04:03:40;;;;;;;16.77;3.45;;;4.00;99.90;;;;;;5040842;28;20427;-71
2024/01/14 04:06:06;;;;;;;21.02;3.97;;;4.30;99.90;;;;;;5030841;28;20049;-71
2024/01/14 04:08:32;;;;;;;13.95;3.20;;;4.10;99.90;;;;;;5033418;28;20443;-70
2024/01/14 04:10:58;;;;;;;20.50;4.22;;;4.00;99.90;;;;;;5072849;28;20134;-71
2024/01/14 04:13:23;;;;;;;23.35;4.13;;;4.00;99.90;;;;;;5042802;28;20041;-71
2024/01/14 04:15:49;;;;;;;16.17;3.58;;;4.00;99.90;;;;;;5032663;28;20056;-70
2024/01/14 04:18:14;;;;;;;18.30;3.38;;;4.00;99.90;;;;;;5063732;28;20042;-71
2024/01/14 04:20:40;;;;;;;16.83;3.65;;;4.10;99.90;;;;;;5033283;28;20091;-72
2024/01/14 04:23:06;;;;;;;21.70;3.88;;;4.10;99.90;;;;;;5040135;28;20170;-78
2024/01/14 04:25:32;;;;;;;19.98;3.88;;;3.90;99.90;;;;;;5035303;28;20063;-71
2024/01/14 04:27:57;;;;;;;29.25;4.10;;;3.90;99.90;;;;;;5030907;28;20052;-71
2024/01/14 04:30:23;;;;;;;15.10;3.42;;;4.00;99.90;;;;;;5063650;28;20383;-71
2024/01/14 04:32:49;;;;;;;13.98;3.72;;;4.00;99.90;;;;;;5038701;28;20490;-71
2024/01/14 04:35:14;;;;;;;13.50;3.25;;;3.90;99.90;;;;;;5053079;28;20378;-71
2024/01/14 04:37:40;;;;;;;12.05;3.25;;;4.00;99.90;;;;;;5051145;28;20033;-70
2024/01/14 04:40:06;;;;;;;20.65;3.88;;;3.90;99.90;;;;;;5050377;28;20043;-71
2024/01/14 04:42:32;;;;;;;17.88;3.28;;;3.90;99.90;;;;;;5051489;28;20033;-70
2024/01/14 04:44:57;;;;;;;23.83;3.45;;;3.90;99.90;;;;;;5051556;28;20114;-70
2024/01/14 04:47:23;;;;;;;18.17;3.13;;;3.80;99.90;;;;;;5048362;28;20094;-71
2024/01/14 04:49:49;;;;;;;16.40;3.55;;;3.80;99.90;;;;;;5050546;28;20431;-71
2024/01/14 04:52:15;;;;;;;17.77;3.35;;;3.90;99.90;;;;;;5051104;28;20383;-71
2024/01/14 04:54:40;;;;;;;20.88;3.97;;;3.80;99.90;;;;;;5051658;28;20463;-75
2024/01/14 04:57:06;;;;;;;15.48;3.60;;;3.90;99.90;;;;;;5050083;28;20045;-71
2024/01/14 04:59:32;;;;;;;24.10;4.28;;;3.90;99.90;;;;;;5060117;28;20151;-73
2024/01/14 05:01:58;;;;;;;20.40;3.78;;;3.80;99.90;;;;;;5050310;28;20043;-72
2024/01/14 05:04:24;;;;;;;20.75;3.28;;;4.00;99.90;;;;;;5049983;28;20102;-72
2024/01/14 05:06:50;;;;;;;19.85;3.83;;;3.80;99.90;;;;;;5051522;28;20045;-71
2024/01/14 05:09:17;;;;;;;16.88;3.63;;;3.90;99.90;;;;;;5051123;28;20098;-72
2024/01/14 05:11:43;;;;;;;20.77;3.60;;;3.80;99.90;;;;;;5048263;28;20049;-72
2024/01/14 05:14:08;;;;;;;18.05;3.85;;;3.80;99.90;;;;;;5050531;28;20364;-71
2024/01/14 05:16:34;;;;;;;27.83;3.92;;;3.80;99.90;;;;;;5052560;28;20752;-71
2024/01/14 05:18:59;;;;;;;29.33;3.75;;;3.70;99.90;;;;;;5054381;28;20041;-71
2024/01/14 05:21:25;;;;;;;21.13;4.13;;;3.70;99.90;;;;;;5054630;28;20055;-71
2024/01/14 05:23:51;;;;;;;20.75;4.30;;;3.60;99.90;;;;;;5046530;28;20493;-71
2024/01/14 05:26:17;;;;;;;17.25;3.15;;;3.70;99.90;;;;;;5048007;28;20136;-77
2024/01/14 05:28:43;;;;;;;20.95;4.00;;;3.60;99.90;;;;;;5037531;28;20049;-71
2024/01/14 05:31:08;;;;;;;15.88;3.55;;;3.60;99.90;;;;;;5046595;28;20083;-71
2024/01/14 05:33:34;;;;;;;24.17;4.00;;;3.60;99.90;;;;;;5048631;28;20428;-71
2024/01/14 05:36:01;;;;;;;25.13;4.00;;;3.60;99.90;;;;;;5051804;28;20080;-71
2024/01/14 05:38:26;;;;;;;15.55;3.30;;;3.50;99.90;;;;;;5053095;28;20431;-71
2024/01/14 05:40:52;;;;;;;18.73;3.15;;;3.70;99.90;;;;;;5053881;28;20116;-71
2024/01/14 05:43:18;;;;;;;22.50;3.67;;;3.50;99.90;;;;;;5053883;28;20047;-78
2024/01/14 05:45:43;;;;;;;21.60;3.40;;;3.50;99.90;;;;;;5054887;28;20087;-71
2024/01/14 05:48:09;;;;;;;15.77;3.17;;;3.40;99.90;;;;;;5054725;28;20036;-71
2024/01/14 05:50:34;;;;;;;17.63;3.15;;;3.50;99.90;;;;;;5048476;28;20055;-71
2024/01/14 05:53:00;;;;;;;16.52;3.45;;;3.60;99.90;;;;;;5054751;28;20103;-70
2024/01/14 05:55:26;;;;;;;17.08;3.42;;;3.50;99.90;;;;;;5053059;28;20045;-71
2024/01/14 05:57:51;;;;;;;17.20;3.33;;;3.40;99.90;;;;;;5047888;28;20045;-71
2024/01/14 06:00:22;;;;;;;14.55;3.10;;;3.30;99.90;;;;;;5041301;28;20036;-70
2024/01/14 06:02:47;;;;;;;10.55;2.95;;;3.30;99.90;;;;;;5038711;28;20094;-71
2024/01/14 06:05:13;;;;;;;20.63;3.90;;;3.40;99.90;;;;;;5043343;28;20037;-70
2024/01/14 06:07:39;;;;;;;17.80;3.38;;;3.40;99.90;;;;;;5034168;28;20042;-71
2024/01/14 06:10:05;;;;;;;9.38;2.10;;;3.40;99.90;;;;;;5035806;28;20061;-71
2024/01/14 06:12:30;;;;;;;14.88;3.38;;;3.50;99.90;;;;;;5040938;28;20470;-71
2024/01/14 06:14:56;;;;;;;21.63;3.88;;;3.50;99.90;;;;;;5042497;28;20045;-71
2024/01/14 06:17:22;;;;;;;14.80;3.15;;;3.50;99.90;;;;;;5039713;28;20037;-71
2024/01/14 06:19:47;;;;;;;16.38;3.10;;;3.50;99.90;;;;;;5045011;28;20071;-71
2024/01/14 06:22:13;;;;;;;20.65;3.65;;;3.50;99.90;;;;;;5036149;28;20126;-73
2024/01/14 06:24:39;;;;;;;18.73;3.72;;;3.60;99.90;;;;;;5066200;28;20040;-74
2024/01/14 06:27:05;;;;;;;17.98;3.08;;;3.60;99.90;;;;;;5035552;28;20053;-71
2024/01/14 06:29:31;;;;;;;17.45;3.80;;;3.60;99.90;;;;;;5051849;28;20041;-72
2024/01/14 06:31:58;;;;;;;16.27;3.17;;;3.60;99.90;;;;;;5041281;28;20474;-73
2024/01/14 06:34:24;;;;;;;33.42;4.13;;;3.70;99.90;;;;;;5046584;28;20095;-72
2024/01/14 06:36:50;;;;;;;15.05;3.13;;;3.70;99.90;;;;;;5071495;28;20056;-72
2024/01/14 06:39:16;;;;;;;17.08;2.67;;;3.70;99.90;;;;;;5043566;28;20045;-71
2024/01/14 06:41:41;;;;;;;21.63;4.20;;;3.70;99.90;;;;;;5041515;28;20041;-72
2024/01/14 06:44:07;;;;;;;18.95;4.05;;;3.60;99.90;;;;;;5036724;28;20045;-72
2024/01/14 06:46:32;;;;;;;17.27;3.67;;;3.60;99.90;;;;;;5032627;28;20044;-71
2024/01/14 06:48:58;;;;;;;14.88;3.35;;;3.50;99.90;;;;;;5065952;28;20430;-71
2024/01/14 06:51:24;;;;;;;19.58;3.25;;;3.60;99.90;;;;;;5040727;28;20463;-71
2024/01/14 06:53:49;;;;;;;18.50;3.35;;;3.50;99.90;;;;;;5046610;28;20037;-71
2024/01/14 06:56:16;;;;;;;15.38;3.47;;;3.40;99.90;;;;;;5033891;28;20121;-71
2024/01/14 06:58:42;;;;;;;21.40;4.53;;;3.50;99.90;;;;;;5032505;28;20041;-71
2024/01/14 07:01:07;;;;;;;23.60;3.83;;;3.30;99.90;;;;;;5040391;28;20044;-71
2024/01/14 07:03:33;;;;;;;21.20;3.67;;;3.60;99.90;;;;;;5037046;28;20037;-71
2024/01/14 07:05:59;;;;;;;26.02;4.38;;;3.40;99.90;;;;;;5030465;28;20052;-71
2024/01/14 07:08:25;;;;;;;21.90;3.67;;;3.40;99.90;;;;;;5042078;28;20478;-71
2024/01/14 07:10:51;;;;;;;16.30;2.92;;;3.30;99.90;;;;;;5040707;28;20874;-71
2024/01/14 07:13:17;;;;;;;18.90;4.70;;;3.30;99.90;;;;;;5037416;28;20037;-71
2024/01/14 07:15:43;;;;;;;23.23;4.82;;;3.40;99.90;;;;;;5066935;28;20103;-71
2024/01/14 07:18:09;;;;;;;15.05;3.65;;;3.30;99.90;;;;;;5065737;28;20076;-72
2024/01/14 07:20:34;;;;;;;26.08;4.40;;;3.30;99.90;;;;;;5033388;28;20421;-78
2024/01/14 07:23:00;;;;;;;16.73;2.90;;;3.40;99.90;;;;;;5051346;28;20059;-70
2024/01/14 07:25:26;;;;;;;21.83;3.92;;;3.30;99.90;;;;;;5036874;28;20049;-70
2024/01/14 07:27:52;;;;;;;14.82;3.38;;;3.30;99.90;;;;;;5032391;28;20099;-70
2024/01/14 07:30:18;;;;;;;15.95;4.28;;;3.40;99.90;;;;;;5036232;28;20116;-71
2024/01/14 07:32:45;;;;;;;21.25;3.70;;;3.40;99.90;;;;;;5056436;28;20386;-74
2024/01/14 07:35:11;;;;;;;16.95;3.50;;;3.40;99.90;;;;;;5034708;28;20490;-72
2024/01/14 07:37:37;;;;;;;16.02;3.58;;;3.50;99.90;;;;;;5034410;28;20102;-80
2024/01/14 07:40:03;;;;;;;18.35;3.78;;;3.40;99.90;;;;;;5042375;28;20045;-72
2024/01/14 07:42:29;;;;;;;17.17;3.80;;;3.40;99.90;;;;;;5046903;28;20474;-72
2024/01/14 07:44:54;;;;;;;20.90;3.72;;;3.40;99.90;;;;;;5050373;28;20052;-72
2024/01/14 07:47:21;;;;;;;12.32;3.55;;;3.50;99.90;;;;;;5038866;28;20071;-72
2024/01/14 07:49:48;;;;;;;13.57;3.20;;;3.50;99.90;;;;;;5031444;28;20045;-72
2024/01/14 07:52:17;;;;;;;12.38;3.35;;;3.40;99.90;;;;;;5033877;28;20461;-71
2024/01/14 07:54:43;;;;;;;22.90;3.50;;;3.40;99.90;;;;;;5044693;28;20033;-71
2024/01/14 07:57:10;;;;;;;16.52;2.80;;;3.40;99.90;;;;;;5075077;28;20458;-71
2024/01/14 07:59:36;;;;;;;12.55;2.88;;;3.40;99.90;;;;;;5043233;28;20041;-71
2024/01/14 08:02:02;;;;;;;18.25;3.50;;;3.30;99.90;;;;;;5069563;28;20044;-71
2024/01/14 08:04:27;;;;;;;16.98;3.22;;;3.30;99.90;;;;;;5077434;28;20458;-71
2024/01/14 08:06:53;;;;;;;15.93;3.30;;;3.30;99.90;;;;;;5048614;28;20049;-71
2024/01/14 08:09:20;;;;;;;15.85;3.33;;;3.30;99.90;;;;;;5030913;28;20045;-71
2024/01/14 08:11:45;;;;;;;18.02;3.65;;;3.30;99.90;;;;;;5049662;28;20115;-72
2024/01/14 08:14:11;;;;;;;14.63;3.10;;;3.30;99.90;;;;;;5050860;28;20120;-71
2024/01/14 08:16:37;;;;;;;16.88;3.20;;;3.30;99.90;;;;;;5051740;28;20047;-71
2024/01/14 08:19:03;;;;;;;20.00;4.07;;;3.30;99.90;;;;;;5050239;28;20636;-71
2024/01/14 08:21:29;;;;;;;16.95;3.53;;;3.30;99.90;;;;;;5051864;28;20045;-70
2024/01/14 08:23:54;;;;;;;22.20;4.35;;;3.30;99.90;;;;;;5051526;28;20528;-71
2024/01/14 08:26:20;;;;;;;15.18;3.22;;;3.30;99.90;;;;;;5049811;28;20118;-70
2024/01/14 08:28:46;;;;;;;18.70;3.33;;;3.40;99.90;;;;;;5071746;28;20120;-76
2024/01/14 08:31:12;;;;;;;16.02;3.42;;;3.40;99.90;;;;;;5066419;28;20045;-70
2024/01/14 08:33:41;;;;;;;18.55;3.08;;;3.40;99.90;;;;;;5045981;28;20060;-73
2024/01/14 08:36:08;;;;;;;19.70;3.67;;;3.40;99.90;;;;;;5051287;28;20073;-70
2024/01/14 08:38:35;;;;;;;16.08;3.83;;;3.40;99.90;;;;;;5049192;28;20113;-70
2024/01/14 08:41:00;;;;;;;16.17;3.30;;;3.40;99.90;;;;;;5035565;28;20047;-70
2024/01/14 08:43:26;;;;;;;11.38;3.58;;;3.40;99.90;;;;;;5064117;28;20032;-70
2024/01/14 08:45:52;;;;;;;16.63;2.60;;;3.50;99.90;;;;;;5050684;28;20079;-71
2024/01/14 08:48:17;;;;;;;13.45;3.58;;;3.30;99.90;;;;;;5051642;28;20094;-70
2024/01/14 08:50:43;;;;;;;14.25;3.22;;;3.40;99.90;;;;;;5061174;28;20040;-71
2024/01/14 08:53:09;;;;;;;16.85;3.85;;;3.40;99.90;;;;;;5050971;28;20033;-70
2024/01/14 08:55:34;;;;;;;16.42;3.63;;;3.40;99.90;;;;;;5067272;28;20368;-70
2024/01/14 08:58:00;;;;;;;15.60;3.72;;;3.40;99.90;;;;;;5050928;28;20099;-70
2024/01/14 09:00:26;;;;;;;17.67;2.95;;;3.40;99.90;;;;;;5051324;28;20049;-70
2024/01/14 09:02:52;;;;;;;13.77;4.13;;;3.40;99.90;;;;;;5026716;28;20061;-78
2024/01/14 09:05:17;;;;;;;19.15;3.35;;;3.40;99.90;;;;;;5051286;28;20037;-70
2024/01/14 09:07:43;;;;;;;13.55;3.00;;;3.40;99.90;;;;;;5050188;28;20041;-70
2024/01/14 09:10:09;;;;;;;13.60;2.75;;;3.40;99.90;;;;;;5049770;28;20044;-70
2024/01/14 09:12:35;;;;;;;16.83;3.03;;;3.40;99.90;;;;;;5050039;28;20041;-70
2024/01/14 09:15:01;;;;;;;11.57;3.03;;;3.60;99.90;;;;;;5047017;28;20044;-71
2024/01/14 09:17:29;;;;;;;16.20;3.10;;;3.50;99.90;;;;;;5050841;28;20055;-70
2024/01/14 09:19:55;;;;;;;16.30;3.22;;;3.40;99.90;;;;;;5050326;28;20536;-70
2024/01/14 09:22:20;;;;;;;16.92;3.83;;;3.50;99.90;;;;;;5050210;28;20048;-70
2024/01/14 09:24:46;;;;;;;17.10;2.88;;;3.60;99.90;;;;;;5050853;28;20382;-71
2024/01/14 09:27:13;;;;;;;12.90;2.85;;;3.60;99.90;;;;;;5049191;28;20044;-70
2024/01/14 09:29:40;;;;;;;19.75;3.78;;;3.60;99.90;;;;;;5047380;28;20052;-70
2024/01/14 09:32:06;;;;;;;8.88;2.30;;;3.70;99.90;;;;;;5039561;28;20037;-71
2024/01/14 09:34:31;;;;;;;14.43;2.85;;;3.80;99.90;;;;;;5046561;28;20029;-70
2024/01/14 09:36:57;;;;;;;11.07;3.15;;;3.80;99.90;;;;;;5030417;28;20068;-73
2024/01/14 09:39:23;;;;;;;9.73;2.45;;;3.80;99.90;;;;;;5034159;28;20042;-71
2024/01/14 09:42:34;;;;;;;6.13;2.10;;;3.90;99.90;;;;;;5036926;28;20045;-72
2024/01/14 09:45:00;;;;;;;14.38;2.85;;;3.90;99.90;;;;;;5012413;28;20060;-70
2024/01/14 09:47:26;;;;;;;13.38;3.17;;;4.00;99.90;;;;;;5035747;28;20370;-70
2024/01/14 09:49:58;;;;;;;9.55;2.38;;;4.00;99.90;;;;;;5034036;28;20049;-70
2024/01/14 09:52:24;;;;;;;13.95;2.72;;;4.10;99.90;;;;;;5053116;28;20048;-74
2024/01/14 09:54:51;;;;;;;15.50;3.60;;;4.10;99.90;;;;;;5043436;28;20442;-70
2024/01/14 09:57:22;;;;;;;9.23;2.47;;;4.10;99.90;;;;;;5036822;28;20049;-70
2024/01/14 09:59:52;;;;;;;14.40;2.78;;;4.10;99.90;;;;;;5031255;28;20092;-70
2024/01/14 10:02:18;;;;;;;15.55;2.95;;;4.20;99.90;;;;;;5032014;28;20096;-70
2024/01/14 10:04:44;;;;;;;13.77;2.63;;;4.30;99.90;;;;;;5035238;28;20061;-70
2024/01/14 10:07:11;;;;;;;11.82;2.80;;;4.20;99.90;;;;;;5044497;28;20379;-70
2024/01/14 10:09:39;;;;;;;10.93;2.92;;;4.30;99.90;;;;;;5049918;28;20041;-70
2024/01/14 10:12:08;;;;;;;12.00;2.22;;;4.40;99.90;;;;;;5066045;28;20049;-70
2024/01/14 10:14:35;;;;;;;12.75;3.00;;;4.40;99.90;;;;;;5034439;28;20051;-70
2024/01/14 10:17:00;;;;;;;13.00;2.67;;;4.40;99.90;;;;;;5037333;28;20560;-75
2024/01/14 10:19:26;;;;;;;18.15;3.22;;;4.50;99.90;;;;;;5043970;28;20041;-70
2024/01/14 10:21:54;;;;;;;11.48;2.33;;;4.50;99.90;;;;;;5034047;28;20041;-70
2024/01/14 10:24:23;;;;;;;12.38;2.80;;;4.60;99.90;;;;;;5034008;28;20433;-70
2024/01/14 10:26:55;;;;;;;14.63;2.88;;;4.80;99.90;;;;;;5034358;28;20061;-71
2024/01/14 10:29:22;;;;;;;8.40;3.10;;;4.90;99.90;;;;;;5034705;28;20045;-70
2024/01/14 10:31:48;;;;;;;11.52;3.00;;;5.10;99.90;;;;;;5036452;28;20045;-70
2024/01/14 10:34:17;;;;;;;15.20;2.70;;;5.20;99.90;;;;;;5051609;28;20371;-69
2024/01/14 10:36:43;;;;;;;14.73;3.33;;;5.40;99.90;;;;;;5054085;28;20037;-72
2024/01/14 10:39:11;;;;;;;14.25;2.63;;;5.50;99.90;;;;;;5053345;28;20052;-71
2024/01/14 10:41:37;;;;;;;12.88;2.28;;;5.50;99.90;;;;;;5053205;28;20037;-70
2024/01/14 10:44:03;;;;;;;14.10;2.63;;;5.60;99.90;;;;;;5044064;28;20033;-70
2024/01/14 10:46:30;;;;;;;10.88;2.47;;;5.50;99.90;;;;;;5053294;28;20425;-70
2024/01/14 10:49:07;;;;;;;14.98;2.92;;;5.50;99.90;;;;;;5068089;28;20053;-70
2024/01/14 10:51:42;;;;;;;14.32;3.38;;;5.50;99.90;;;;;;5045380;28;20041;-70
2024/01/14 10:54:16;;;;;;;18.60;2.58;;;5.40;99.90;;;;;;5033211;28;20054;-77
2024/01/14 10:56:48;;;;;;;8.52;2.15;;;5.50;99.90;;;;;;5038625;28;20045;-70
2024/01/14 10:59:16;;;;;;;10.95;2.45;;;5.50;99.90;;;;;;5040528;28;20037;-70
2024/01/14 11:01:49;;;;;;;15.57;2.53;;;5.50;99.90;;;;;;5036895;28;20042;-70
2024/01/14 11:04:17;;;;;;;11.90;2.88;;;5.50;99.90;;;;;;5046578;28;20116;-70
2024/01/14 11:06:45;;;;;;;14.18;2.38;;;5.50;99.90;;;;;;5035043;28;20090;-70
2024/01/14 11:09:11;;;;;;;10.43;2.47;;;5.50;99.90;;;;;;5043738;28;20045;-83
2024/01/14 11:11:56;;;;;;;11.90;2.55;;;5.50;99.90;;;;;;5048580;28;20080;-69
2024/01/14 11:14:34;;;;;;;16.45;2.90;;;5.50;99.90;;;;;;5039252;28;20125;-69
2024/01/14 11:17:13;;;;;;;11.25;2.38;;;5.40;99.90;;;;;;5052896;28;20049;-69
2024/01/14 11:19:41;;;;;;;13.13;2.10;;;5.40;99.90;;;;;;5040168;28;20045;-69
2024/01/14 11:22:19;;;;;;;12.93;2.58;;;5.40;99.90;;;;;;5035769;28;20125;-72
2024/01/14 11:24:44;;;;;;;11.02;2.22;;;5.40;99.90;;;;;;5041811;28;20041;-70
2024/01/14 11:27:11;;;;;;;9.93;2.17;;;5.40;99.90;;;;;;5046355;28;20498;-69
2024/01/14 11:29:40;;;;;;;11.88;2.33;;;5.40;99.90;;;;;;5046468;28;20072;-69
2024/01/14 11:32:11;;;;;;;14.02;2.35;;;5.40;99.90;;;;;;5042409;28;20116;-70
2024/01/14 11:34:46;;;;;;;10.80;2.92;;;5.40;99.90;;;;;;5078733;28;20036;-70
2024/01/14 11:37:47;;;;;;;13.77;2.97;;;5.40;99.90;;;;;;5037661;28;20045;-70
2024/01/14 11:40:18;;;;;;;9.27;2.05;;;5.50;99.90;;;;;;5003615;28;20052;-70
2024/01/14 11:42:49;;;;;;;11.90;2.25;;;5.60;99.90;;;;;;5033935;28;20049;-71
2024/01/14 11:45:24;;;;;;;11.77;2.50;;;5.70;99.90;;;;;;5051370;28;20056;-79
2024/01/14 11:47:55;;;;;;;10.18;2.30;;;5.80;99.90;;;;;;5028502;28;20092;-70
2024/01/14 11:50:21;;;;;;;11.07;2.60;;;5.80;99.90;;;;;;5044962;28;20051;-70
2024/01/14 11:52:49;;;;;;;11.02;2.38;;;5.90;99.90;;;;;;5035048;28;20048;-70
2024/01/14 11:55:33;;;;;;;10.20;2.00;;;5.80;99.90;;;;;;5036299;28;20373;-70
2024/01/14 11:58:13;;;;;;;10.18;2.20;;;5.80;99.90;;;;;;5042478;28;20045;-69
2024/01/14 12:00:39;;;;;;;8.75;2.42;;;5.60;99.90;;;;;;5043848;28;20032;-69
2024/01/14 12:03:10;;;;;;;12.48;1.98;;;5.60;99.90;;;;;;5038834;28;20041;-69
2024/01/14 12:05:36;;;;;;;10.57;2.95;;;5.60;99.90;;;;;;5038817;28;20041;-70
2024/01/14 12:08:03;;;;;;;11.57;2.10;;;5.60;99.90;;;;;;5072103;28;20029;-70
2024/01/14 12:10:31;;;;;;;11.52;2.00;;;5.60;99.90;;;;;;5048737;28;20120;-70
2024/01/14 12:12:58;;;;;;;10.85;2.15;;;5.70;99.90;;;;;;5047237;28;20087;-70
2024/01/14 12:15:24;;;;;;;16.30;2.65;;;5.80;99.90;;;;;;5048719;28;20413;-70
2024/01/14 12:18:00;;;;;;;13.32;2.38;;;6.00;99.90;;;;;;5050849;28;20049;-70
2024/01/14 12:20:27;;;;;;;13.45;2.38;;;6.00;99.90;;;;;;5032383;28;20084;-70
2024/01/14 12:23:04;;;;;;;9.60;2.00;;;6.10;99.90;;;;;;5047603;28;20044;-70
2024/01/14 12:25:31;;;;;;;9.48;2.58;;;6.20;99.90;;;;;;5039921;28;20115;-70
2024/01/14 12:27:57;;;;;;;8.82;2.70;;;6.30;99.90;;;;;;5046888;28;20378;-73
2024/01/14 12:30:34;;;;;;;10.77;2.30;;;6.40;99.90;;;;;;5049489;28;20108;-77
2024/01/14 12:33:06;;;;;;;12.00;2.22;;;6.50;99.90;;;;;;5066099;28;20037;-70
2024/01/14 12:35:35;;;;;;;10.15;2.30;;;6.50;99.90;;;;;;5042965;28;20048;-72
2024/01/14 12:38:02;;;;;;;8.18;1.88;;;6.50;99.90;;;;;;5068309;28;20045;-70
2024/01/14 12:40:28;;;;;;;11.98;2.58;;;6.50;99.90;;;;;;5077764;28;20504;-70
2024/01/14 12:42:54;;;;;;;9.40;2.42;;;6.50;99.90;;;;;;5045429;28;20049;-70
2024/01/14 12:45:20;;;;;;;10.52;2.33;;;6.40;99.90;;;;;;5039593;28;20422;-73